Time;durP1;ratioP1;P1;durP2;ratioP2;P2;SDS_P1;SDS_P2;PMS_P1;PMS_P2;Temp;Humidity;BMP_temperature;BMP_pressure;BME280_temperature;BME280_humidity;BME280_pressure;Samples;Min_cycle;Max_cycle;Signal;HPM_P1;HPM_P2
2023/03/16 00:00:52;;;;;;;6.82;2.88;;;3.80;99.90;;;;;;4959621;28;88898;-28
2023/03/16 00:03:18;;;;;;;6.15;3.10;;;3.80;99.90;;;;;;4960100;28;90334;-30
2023/03/16 00:05:49;;;;;;;6.65;3.47;;;3.80;99.90;;;;;;4960108;28;89141;-30
2023/03/16 00:08:15;;;;;;;5.40;2.72;;;3.80;99.90;;;;;;4959910;28;89178;-32
2023/03/16 00:10:45;;;;;;;3.42;3.05;;;3.70;99.90;;;;;;4959531;28;89038;-30
2023/03/16 00:13:13;;;;;;;11.20;3.80;;;3.70;99.90;;;;;;4971822;28;89623;-30
2023/03/16 00:15:39;;;;;;;3.78;3.40;;;3.70;99.90;;;;;;4960197;28;90506;-30
2023/03/16 00:18:05;;;;;;;4.68;3.45;;;3.70;99.90;;;;;;4960428;28;89742;-30
2023/03/16 00:20:32;;;;;;;9.00;4.07;;;3.70;99.90;;;;;;4965102;28;89004;-32
2023/03/16 00:22:58;;;;;;;8.48;4.80;;;3.70;99.90;;;;;;4965100;28;89957;-28
2023/03/16 00:25:23;;;;;;;4.13;3.67;;;3.70;99.90;;;;;;4959824;28;88722;-30
2023/03/16 00:27:49;;;;;;;5.97;3.45;;;3.70;99.90;;;;;;4959267;28;90061;-31
2023/03/16 00:30:15;;;;;;;6.05;4.88;;;3.70;99.90;;;;;;4972674;28;89185;-33
2023/03/16 00:32:41;;;;;;;6.30;3.97;;;3.70;99.90;;;;;;4959134;28;90741;-30
2023/03/16 00:35:06;;;;;;;4.93;3.90;;;3.70;99.90;;;;;;4972238;28;89406;-33
2023/03/16 00:37:32;;;;;;;6.30;4.50;;;3.70;99.90;;;;;;4960196;28;89546;-30
2023/03/16 00:39:58;;;;;;;7.07;3.67;;;3.70;99.90;;;;;;4958716;28;87695;-32
2023/03/16 00:42:26;;;;;;;7.60;3.97;;;3.70;99.90;;;;;;4971483;28;90339;-33
2023/03/16 00:44:57;;;;;;;7.50;4.05;;;3.70;99.90;;;;;;4959218;28;91359;-29
2023/03/16 00:47:28;;;;;;;12.32;3.88;;;3.70;99.90;;;;;;4959749;28;90065;-32
2023/03/16 00:49:54;;;;;;;7.85;4.03;;;3.70;99.90;;;;;;4958920;28;88506;-31
2023/03/16 00:52:21;;;;;;;12.63;4.28;;;3.70;99.90;;;;;;4958817;28;91074;-29
2023/03/16 00:54:47;;;;;;;8.05;4.97;;;3.60;99.90;;;;;;4958593;28;90484;-30
2023/03/16 00:57:17;;;;;;;5.63;4.60;;;3.70;99.90;;;;;;4959200;28;89378;-32
2023/03/16 00:59:44;;;;;;;9.90;4.50;;;3.70;99.90;;;;;;4959459;28;90628;-29
2023/03/16 01:02:11;;;;;;;7.93;4.82;;;3.70;99.90;;;;;;4960974;28;90647;-29
2023/03/16 01:04:40;;;;;;;5.35;4.32;;;3.70;99.90;;;;;;4970485;28;90638;-28
2023/03/16 01:07:07;;;;;;;9.05;5.55;;;3.70;99.90;;;;;;4959146;28;89702;-30
2023/03/16 01:09:36;;;;;;;19.05;4.20;;;3.70;99.90;;;;;;4958551;28;90105;-31
2023/03/16 01:12:08;;;;;;;9.07;4.55;;;3.70;99.90;;;;;;4961423;28;90282;-29
2023/03/16 01:14:34;;;;;;;12.02;5.20;;;3.70;99.90;;;;;;4934763;28;90414;-30
2023/03/16 01:17:00;;;;;;;4.72;4.30;;;3.70;99.90;;;;;;4959384;28;89755;-29
2023/03/16 01:19:27;;;;;;;6.43;4.97;;;3.70;99.90;;;;;;4959333;28;87455;-29
2023/03/16 01:21:52;;;;;;;10.18;5.32;;;3.60;99.90;;;;;;4971471;28;90551;-31
2023/03/16 01:24:18;;;;;;;9.48;5.82;;;3.60;99.90;;;;;;4941344;28;89977;-28
2023/03/16 01:26:44;;;;;;;7.22;5.22;;;3.60;99.90;;;;;;4959189;28;90192;-28
2023/03/16 01:29:11;;;;;;;14.23;5.13;;;3.60;99.90;;;;;;4969179;28;89654;-33
2023/03/16 01:31:37;;;;;;;6.25;4.63;;;3.60;99.90;;;;;;4944365;28;90016;-31
2023/03/16 01:34:03;;;;;;;6.22;4.68;;;3.60;99.90;;;;;;4957931;28;91182;-30
2023/03/16 01:36:30;;;;;;;5.43;4.35;;;3.60;99.90;;;;;;4958615;28;90427;-29
2023/03/16 01:38:56;;;;;;;14.98;5.95;;;3.60;99.90;;;;;;4958893;28;90089;-31
2023/03/16 01:41:21;;;;;;;6.72;5.63;;;3.60;99.90;;;;;;4958501;28;90237;-31
2023/03/16 01:43:47;;;;;;;7.97;4.82;;;3.60;99.90;;;;;;4958558;28;89908;-31
2023/03/16 01:46:26;;;;;;;5.47;3.58;;;3.60;99.90;;;;;;4958584;28;90149;-29
2023/03/16 01:49:09;;;;;;;4.20;3.70;;;3.60;99.90;;;;;;4958493;28;88471;-30
2023/03/16 01:51:36;;;;;;;5.03;4.20;;;3.50;99.90;;;;;;4958452;28;89843;-31
2023/03/16 01:54:27;;;;;;;7.38;4.28;;;3.50;99.90;;;;;;4959294;28;91165;-27
2023/03/16 01:57:04;;;;;;;5.05;3.55;;;3.50;99.90;;;;;;4958791;28;89113;-30
2023/03/16 01:59:38;;;;;;;5.65;3.67;;;3.60;99.90;;;;;;4958579;28;90556;-28
2023/03/16 02:02:05;;;;;;;10.05;5.22;;;3.60;99.90;;;;;;4958034;28;90352;-31
2023/03/16 02:04:41;;;;;;;4.90;3.97;;;3.50;99.90;;;;;;4962590;28;89962;-29
2023/03/16 02:07:08;;;;;;;4.45;3.83;;;3.50;99.90;;;;;;4962261;28;89416;-29
2023/03/16 02:09:37;;;;;;;13.07;6.15;;;3.50;99.90;;;;;;4961674;28;88323;-29
2023/03/16 02:12:04;;;;;;;5.22;4.13;;;3.50;99.90;;;;;;4961219;28;90752;-30
2023/03/16 02:14:30;;;;;;;6.13;4.45;;;3.50;99.90;;;;;;4962222;28;89726;-31
2023/03/16 02:16:56;;;;;;;7.00;4.22;;;3.50;99.90;;;;;;4961001;28;89839;-31
2023/03/16 02:19:38;;;;;;;10.77;6.32;;;3.50;99.90;;;;;;4961841;28;88518;-29
2023/03/16 02:22:07;;;;;;;4.22;3.83;;;3.40;99.90;;;;;;4960757;28;89310;-30
2023/03/16 02:24:33;;;;;;;7.22;4.80;;;3.40;99.90;;;;;;4961254;28;90771;-31
2023/03/16 02:27:06;;;;;;;6.53;4.25;;;3.40;99.90;;;;;;4962116;28;90273;-31
2023/03/16 02:29:43;;;;;;;8.15;4.18;;;3.50;99.90;;;;;;4944135;28;88048;-30
2023/03/16 02:32:10;;;;;;;6.60;4.18;;;3.40;99.90;;;;;;4961327;28;91007;-30
2023/03/16 02:34:37;;;;;;;7.55;4.13;;;3.40;99.90;;;;;;4961130;28;89724;-30
2023/03/16 02:37:03;;;;;;;7.72;4.93;;;3.40;99.90;;;;;;4961283;28;89590;-29
2023/03/16 02:39:28;;;;;;;14.25;5.05;;;3.40;99.90;;;;;;4960935;28;88068;-28
2023/03/16 02:41:54;;;;;;;5.00;3.88;;;3.40;99.90;;;;;;4961820;28;90358;-31
2023/03/16 02:44:27;;;;;;;7.40;4.18;;;3.50;99.90;;;;;;4960299;28;89476;-30
2023/03/16 02:47:00;;;;;;;6.28;5.47;;;3.40;99.90;;;;;;4961424;28;89429;-32
2023/03/16 02:49:34;;;;;;;5.45;4.57;;;3.40;99.90;;;;;;4961206;28;89737;-30
2023/03/16 02:51:59;;;;;;;9.50;5.45;;;3.40;99.90;;;;;;4960929;28;90360;-30
2023/03/16 02:54:25;;;;;;;5.45;4.60;;;3.40;99.90;;;;;;4961297;28;89642;-33
2023/03/16 02:56:51;;;;;;;7.65;4.88;;;3.40;99.90;;;;;;4960803;28;89509;-31
2023/03/16 02:59:16;;;;;;;7.60;5.70;;;3.40;99.90;;;;;;4960722;28;88816;-29
2023/03/16 03:01:42;;;;;;;11.77;5.10;;;3.40;99.90;;;;;;4961164;28;90255;-30
2023/03/16 03:04:08;;;;;;;6.95;5.20;;;3.50;99.90;;;;;;4960200;28;89368;-29
2023/03/16 03:06:33;;;;;;;6.50;4.60;;;3.40;99.90;;;;;;4961264;28;90641;-32
2023/03/16 03:09:00;;;;;;;9.13;5.15;;;3.50;99.90;;;;;;4961410;28;89534;-29
2023/03/16 03:11:27;;;;;;;11.88;5.32;;;3.50;99.90;;;;;;4960219;28;90992;-31
2023/03/16 03:13:53;;;;;;;5.82;4.95;;;3.50;99.90;;;;;;4958935;28;91274;-28
2023/03/16 03:16:19;;;;;;;7.25;5.30;;;3.50;99.90;;;;;;4960304;28;90950;-30
2023/03/16 03:18:44;;;;;;;7.28;5.07;;;3.50;99.90;;;;;;4973367;28;89398;-29
2023/03/16 03:21:10;;;;;;;9.50;4.70;;;3.50;99.90;;;;;;4961107;28;89858;-29
2023/03/16 03:23:35;;;;;;;10.05;5.50;;;3.50;99.90;;;;;;4960152;28;89928;-30
2023/03/16 03:26:03;;;;;;;9.45;4.85;;;3.50;99.90;;;;;;4960460;28;89280;-28
2023/03/16 03:28:29;;;;;;;4.80;4.30;;;3.50;99.90;;;;;;4960548;28;88712;-29
2023/03/16 03:30:55;;;;;;;10.32;4.75;;;3.50;99.90;;;;;;4960497;28;90080;-32
2023/03/16 03:33:21;;;;;;;7.25;5.22;;;3.60;99.90;;;;;;4960833;28;89878;-30
2023/03/16 03:35:53;;;;;;;7.88;4.47;;;3.60;99.90;;;;;;4959844;28;89259;-31
2023/03/16 03:38:19;;;;;;;6.50;4.60;;;3.50;99.90;;;;;;4959932;28;89619;-33
2023/03/16 03:40:47;;;;;;;13.55;4.35;;;3.50;99.90;;;;;;4959241;28;90372;-30
2023/03/16 03:43:12;;;;;;;9.30;5.13;;;3.60;99.90;;;;;;4960165;28;90504;-29
2023/03/16 03:45:38;;;;;;;7.45;5.32;;;3.60;99.90;;;;;;4960177;28;89611;-32
2023/03/16 03:48:04;;;;;;;4.80;4.40;;;3.60;99.90;;;;;;4964983;28;89343;-31
2023/03/16 03:50:29;;;;;;;7.00;4.68;;;3.50;99.90;;;;;;4967297;28;90529;-29
2023/03/16 03:52:55;;;;;;;5.82;3.85;;;3.50;99.90;;;;;;4959685;28;90820;-29
2023/03/16 03:55:20;;;;;;;8.45;4.72;;;3.50;99.90;;;;;;4960612;28;89876;-31
2023/03/16 03:57:46;;;;;;;8.93;4.57;;;3.60;99.90;;;;;;4960070;28;88570;-30
2023/03/16 04:00:12;;;;;;;8.35;4.15;;;3.50;99.90;;;;;;4959274;28;90786;-29
2023/03/16 04:02:38;;;;;;;4.35;3.72;;;3.60;99.90;;;;;;4959633;28;90928;-30
2023/03/16 04:05:05;;;;;;;6.85;5.03;;;3.60;99.90;;;;;;4959423;28;90957;-31
2023/03/16 04:07:31;;;;;;;5.70;4.85;;;3.70;99.90;;;;;;4959733;28;89391;-32
2023/03/16 04:09:56;;;;;;;5.32;4.47;;;3.60;99.90;;;;;;4960247;28;90118;-28
2023/03/16 04:12:22;;;;;;;7.13;5.30;;;3.60;99.90;;;;;;4959188;28;89750;-28
2023/03/16 04:14:48;;;;;;;4.85;4.45;;;3.60;99.90;;;;;;4961022;28;89855;-30
2023/03/16 04:17:13;;;;;;;6.43;4.97;;;3.60;99.90;;;;;;4959614;28;90006;-31
2023/03/16 04:19:39;;;;;;;5.53;3.65;;;3.60;99.90;;;;;;4942684;28;90200;-31
2023/03/16 04:22:06;;;;;;;5.97;4.93;;;3.60;99.90;;;;;;4959763;28;89778;-29
2023/03/16 04:24:33;;;;;;;7.05;5.38;;;3.60;99.90;;;;;;4941516;28;89594;-30
2023/03/16 04:26:59;;;;;;;7.32;4.53;;;3.70;99.90;;;;;;4942094;28;89868;-31
2023/03/16 04:29:26;;;;;;;8.80;4.80;;;3.60;99.90;;;;;;4972241;28;89696;-28
2023/03/16 04:31:52;;;;;;;13.73;4.38;;;3.60;99.90;;;;;;4973010;28;88903;-29
2023/03/16 04:34:23;;;;;;;5.60;3.92;;;3.60;99.90;;;;;;4959884;28;89669;-32
2023/03/16 04:36:52;;;;;;;6.20;4.45;;;3.60;99.90;;;;;;4958913;28;88136;-31
2023/03/16 04:39:19;;;;;;;18.40;4.90;;;3.70;99.90;;;;;;4959538;28;90896;-28
2023/03/16 04:41:45;;;;;;;5.93;3.50;;;3.70;99.90;;;;;;4966716;28;89621;-31
2023/03/16 04:44:11;;;;;;;6.25;4.40;;;3.70;99.90;;;;;;4966000;28;88647;-33
2023/03/16 04:46:36;;;;;;;5.32;4.78;;;3.70;99.90;;;;;;4960189;28;88223;-33
2023/03/16 04:49:02;;;;;;;6.50;4.32;;;3.70;99.90;;;;;;4959387;28;89784;-30
2023/03/16 04:51:29;;;;;;;7.30;4.90;;;3.70;99.90;;;;;;4957929;28;90727;-33
2023/03/16 04:53:54;;;;;;;8.48;5.40;;;3.70;99.90;;;;;;4959271;28;89066;-31
2023/03/16 04:56:20;;;;;;;5.82;5.00;;;3.70;99.90;;;;;;4959197;28;89335;-30
2023/03/16 04:58:47;;;;;;;7.93;5.25;;;3.80;99.90;;;;;;4959124;28;89677;-32
2023/03/16 05:01:14;;;;;;;6.30;4.68;;;3.70;99.90;;;;;;4959697;28;89128;-32
2023/03/16 05:03:40;;;;;;;9.85;4.78;;;3.70;99.90;;;;;;4959972;28;89803;-35
2023/03/16 05:06:06;;;;;;;5.18;4.55;;;3.70;99.90;;;;;;4959385;28;89517;-32
2023/03/16 05:08:31;;;;;;;4.30;3.35;;;3.70;99.90;;;;;;4960394;28;92037;-29
2023/03/16 05:10:58;;;;;;;4.05;3.65;;;3.70;99.90;;;;;;4958001;28;90531;-28
2023/03/16 05:13:24;;;;;;;7.47;4.35;;;3.70;99.90;;;;;;4959311;28;89993;-29
2023/03/16 05:15:52;;;;;;;5.05;4.55;;;3.70;99.90;;;;;;4940215;28;90295;-31
2023/03/16 05:18:18;;;;;;;;;;;3.70;99.90;;;;;;4959449;28;90457;-31
2023/03/16 05:20:44;;;;;;;8.35;4.72;;;3.70;99.90;;;;;;4960081;28;89432;-28
2023/03/16 05:23:10;;;;;;;8.13;4.88;;;3.70;99.90;;;;;;4958201;28;90385;-30
2023/03/16 05:25:36;;;;;;;7.93;4.75;;;3.70;99.90;;;;;;4959037;28;89154;-30
2023/03/16 05:28:03;;;;;;;6.30;5.45;;;3.70;99.90;;;;;;4960884;28;88906;-29
2023/03/16 05:30:30;;;;;;;8.27;5.30;;;3.70;99.90;;;;;;4971133;28;89832;-31
2023/03/16 05:32:56;;;;;;;8.38;5.40;;;3.70;99.90;;;;;;4960007;28;89427;-29
2023/03/16 05:35:22;;;;;;;7.15;4.75;;;3.70;99.90;;;;;;4959208;28;89179;-30
2023/03/16 05:37:48;;;;;;;5.50;4.90;;;3.70;99.90;;;;;;4959325;28;92274;-29
2023/03/16 05:40:17;;;;;;;10.75;5.50;;;3.80;99.90;;;;;;4961252;28;91325;-31
2023/03/16 05:42:45;;;;;;;8.80;6.70;;;3.70;99.90;;;;;;4960912;28;90819;-28
2023/03/16 05:45:11;;;;;;;6.10;5.20;;;3.70;99.90;;;;;;4961120;28;89824;-31
2023/03/16 05:47:38;;;;;;;7.10;4.38;;;3.70;99.90;;;;;;4962063;28;90219;-29
2023/03/16 05:50:04;;;;;;;6.13;4.53;;;3.70;99.90;;;;;;4963212;28;89883;-33
2023/03/16 05:52:31;;;;;;;5.40;4.57;;;3.70;99.90;;;;;;4964499;28;89608;-27
2023/03/16 05:54:56;;;;;;;9.63;4.68;;;3.70;99.90;;;;;;4961807;28;88337;-31
2023/03/16 05:57:22;;;;;;;10.27;6.20;;;3.70;99.90;;;;;;4961891;28;90418;-30
2023/03/16 05:59:49;;;;;;;5.80;4.45;;;3.70;99.90;;;;;;4961671;28;89766;-29
2023/03/16 06:02:14;;;;;;;7.45;5.07;;;3.70;99.90;;;;;;4961183;28;89070;-31
2023/03/16 06:04:40;;;;;;;6.72;4.03;;;3.70;99.90;;;;;;4961760;28;89153;-31
2023/03/16 06:07:06;;;;;;;6.10;4.32;;;3.80;99.90;;;;;;4961691;28;90940;-30
2023/03/16 06:09:31;;;;;;;6.45;4.55;;;3.80;99.90;;;;;;4961251;28;89571;-28
2023/03/16 06:11:57;;;;;;;7.05;4.72;;;3.80;99.90;;;;;;4961543;28;89674;-29
2023/03/16 06:14:23;;;;;;;16.40;4.80;;;3.80;99.90;;;;;;4961397;28;88204;-30
2023/03/16 06:16:49;;;;;;;6.18;4.95;;;3.80;99.90;;;;;;4961848;28;90297;-28
2023/03/16 06:19:15;;;;;;;8.43;6.03;;;3.80;99.90;;;;;;4961279;28;90102;-32
2023/03/16 06:21:41;;;;;;;6.55;4.38;;;3.90;99.90;;;;;;4961095;28;88656;-31
2023/03/16 06:24:08;;;;;;;5.07;4.57;;;3.90;99.90;;;;;;4961441;28;87937;-32
2023/03/16 06:26:34;;;;;;;4.88;4.32;;;3.90;99.90;;;;;;4943356;28;92033;-31
2023/03/16 06:29:00;;;;;;;5.93;4.75;;;3.90;99.90;;;;;;4952126;28;90308;-31
2023/03/16 06:31:25;;;;;;;5.35;4.47;;;3.90;99.90;;;;;;4965626;28;90560;-28
2023/03/16 06:33:51;;;;;;;7.60;4.50;;;3.90;99.90;;;;;;4960836;28;88601;-30
2023/03/16 06:36:17;;;;;;;5.10;4.20;;;3.90;99.90;;;;;;4960653;28;90426;-28
2023/03/16 06:38:42;;;;;;;6.07;3.50;;;4.00;99.90;;;;;;4961200;28;90291;-32
2023/03/16 06:41:08;;;;;;;8.05;5.57;;;4.00;99.90;;;;;;4961412;28;89521;-31
2023/03/16 06:43:34;;;;;;;6.10;4.00;;;4.00;99.90;;;;;;4961780;28;88177;-30
2023/03/16 06:46:00;;;;;;;9.18;5.03;;;4.00;99.90;;;;;;4943199;28;91745;-30
2023/03/16 06:48:26;;;;;;;5.35;4.70;;;4.00;99.90;;;;;;4960852;28;89847;-28
2023/03/16 06:50:51;;;;;;;5.82;4.30;;;4.10;99.90;;;;;;4941124;28;89511;-30
2023/03/16 06:53:17;;;;;;;13.48;5.45;;;4.10;99.90;;;;;;4961245;28;91248;-31
2023/03/16 06:55:42;;;;;;;5.88;3.53;;;4.10;99.90;;;;;;4943352;28;89842;-32
2023/03/16 06:58:08;;;;;;;5.43;4.55;;;4.10;99.90;;;;;;4960546;28;89936;-33
2023/03/16 07:00:34;;;;;;;5.97;4.45;;;4.20;99.90;;;;;;4960215;28;89580;-30
2023/03/16 07:03:00;;;;;;;8.73;5.22;;;4.20;99.90;;;;;;4960984;28;89603;-32
2023/03/16 07:05:26;;;;;;;4.55;4.15;;;4.20;99.90;;;;;;4961099;28;89871;-30
2023/03/16 07:07:53;;;;;;;7.25;5.35;;;4.30;99.90;;;;;;4960655;28;89543;-30
2023/03/16 07:10:19;;;;;;;6.90;4.35;;;4.30;99.90;;;;;;4942929;28;89060;-29
2023/03/16 07:12:45;;;;;;;4.85;4.38;;;4.30;99.90;;;;;;4961140;28;87792;-30
2023/03/16 07:15:12;;;;;;;7.72;4.13;;;4.30;99.90;;;;;;4960893;28;90114;-31
2023/03/16 07:17:37;;;;;;;5.40;4.35;;;4.40;99.90;;;;;;4959997;28;90778;-30
2023/03/16 07:20:04;;;;;;;6.45;4.47;;;4.40;99.90;;;;;;4960384;28;89585;-30
2023/03/16 07:22:31;;;;;;;5.85;4.50;;;4.40;99.90;;;;;;4961047;28;89425;-32
2023/03/16 07:24:57;;;;;;;9.60;4.85;;;4.40;99.90;;;;;;4959193;28;92087;-30
2023/03/16 07:27:24;;;;;;;6.10;3.58;;;4.40;99.90;;;;;;4958846;28;90106;-30
2023/03/16 07:29:51;;;;;;;6.68;4.00;;;4.50;99.90;;;;;;4957938;28;89519;-30
2023/03/16 07:32:18;;;;;;;7.65;4.60;;;4.50;99.90;;;;;;4959017;28;88631;-31
2023/03/16 07:34:44;;;;;;;7.07;3.63;;;4.60;99.90;;;;;;4958290;28;90171;-32
2023/03/16 07:37:10;;;;;;;4.53;3.90;;;4.60;99.90;;;;;;4962812;28;89348;-30
2023/03/16 07:39:36;;;;;;;5.22;4.03;;;4.60;99.90;;;;;;4962012;28;89552;-32
2023/03/16 07:42:01;;;;;;;5.00;4.50;;;4.60;99.90;;;;;;4957777;28;90156;-31
2023/03/16 07:44:27;;;;;;;5.35;4.40;;;4.60;99.90;;;;;;4957963;28;90413;-31
2023/03/16 07:46:53;;;;;;;7.18;3.42;;;4.60;99.90;;;;;;4967404;28;89983;-29
2023/03/16 07:49:19;;;;;;;14.82;4.80;;;4.60;99.90;;;;;;4958103;28;89506;-30
2023/03/16 07:51:45;;;;;;;5.18;4.13;;;4.60;99.90;;;;;;4958289;28;89686;-29
2023/03/16 07:54:10;;;;;;;5.30;4.57;;;4.70;99.90;;;;;;4957817;28;90308;-30
2023/03/16 07:56:36;;;;;;;6.75;4.65;;;4.80;99.90;;;;;;4957635;28;91189;-32
2023/03/16 07:59:02;;;;;;;7.05;3.60;;;4.80;99.90;;;;;;4949782;28;89864;-28
2023/03/16 08:01:28;;;;;;;6.93;4.18;;;4.90;99.90;;;;;;4967108;28;89095;-28
2023/03/16 08:03:54;;;;;;;8.43;4.95;;;4.80;99.90;;;;;;4958271;28;89043;-31
2023/03/16 08:06:20;;;;;;;9.70;3.97;;;4.90;99.90;;;;;;4956987;28;90446;-32
2023/03/16 08:08:46;;;;;;;6.85;5.00;;;4.90;99.90;;;;;;4957494;28;90855;-31
2023/03/16 08:11:12;;;;;;;6.88;5.45;;;4.90;99.90;;;;;;4976605;28;90433;-30
2023/03/16 08:13:38;;;;;;;6.07;3.60;;;5.00;99.90;;;;;;4961310;28;89769;-29
2023/03/16 08:16:09;;;;;;;7.93;3.80;;;5.00;99.90;;;;;;4957028;28;90019;-31
2023/03/16 08:18:35;;;;;;;7.63;4.47;;;5.00;99.90;;;;;;4961340;28;89940;-33
2023/03/16 08:21:01;;;;;;;7.88;4.63;;;5.10;99.90;;;;;;4972280;28;89825;-29
2023/03/16 08:23:28;;;;;;;5.75;4.93;;;5.10;99.90;;;;;;4960109;28;90149;-32
2023/03/16 08:25:56;;;;;;;5.10;3.95;;;5.10;99.90;;;;;;4958011;28;89506;-31
2023/03/16 08:28:24;;;;;;;4.38;3.60;;;5.10;99.90;;;;;;4961434;28;90377;-30
2023/03/16 08:30:52;;;;;;;5.43;4.35;;;5.20;99.90;;;;;;4966645;28;89456;-33
2023/03/16 08:33:19;;;;;;;6.90;3.92;;;5.20;99.90;;;;;;4957636;28;88916;-30
2023/03/16 08:35:46;;;;;;;7.00;4.15;;;5.20;99.90;;;;;;4957189;28;90717;-31
2023/03/16 08:38:13;;;;;;;6.32;4.60;;;5.30;99.90;;;;;;4962388;28;89661;-34
2023/03/16 08:40:57;;;;;;;9.35;4.30;;;5.30;99.90;;;;;;4965918;28;88206;-29
2023/03/16 08:43:23;;;;;;;7.57;3.80;;;5.40;99.90;;;;;;4958944;28;90253;-32
2023/03/16 08:45:49;;;;;;;5.78;4.03;;;5.40;99.90;;;;;;4962997;28;89310;-30
2023/03/16 08:48:15;;;;;;;7.13;4.78;;;5.40;99.90;;;;;;4960213;28;89460;-33
2023/03/16 08:50:42;;;;;;;6.50;4.38;;;5.50;99.90;;;;;;4962093;28;89433;-33
2023/03/16 08:53:09;;;;;;;7.17;5.17;;;5.50;99.90;;;;;;4959541;28;90450;-30
2023/03/16 08:55:35;;;;;;;8.55;5.03;;;5.50;99.90;;;;;;4962271;28;90102;-31
2023/03/16 08:58:01;;;;;;;10.13;5.70;;;5.50;99.90;;;;;;4956955;28;90374;-29
2023/03/16 09:00:28;;;;;;;6.38;4.35;;;5.50;99.90;;;;;;4958089;28;89598;-32
2023/03/16 09:02:54;;;;;;;6.40;4.43;;;5.50;99.90;;;;;;4965284;28;90252;-28
2023/03/16 09:05:20;;;;;;;6.38;4.07;;;5.50;99.90;;;;;;4956744;28;89255;-29
2023/03/16 09:07:46;;;;;;;4.57;4.18;;;5.50;99.90;;;;;;4957054;28;89287;-30
2023/03/16 09:10:14;;;;;;;8.18;4.95;;;5.60;99.90;;;;;;4964684;28;89600;-30
2023/03/16 09:12:41;;;;;;;5.93;4.25;;;5.50;99.90;;;;;;4956265;28;89616;-29
2023/03/16 09:15:09;;;;;;;5.00;4.22;;;5.60;99.90;;;;;;4965223;28;89285;-32
2023/03/16 09:17:35;;;;;;;5.65;5.10;;;5.60;99.90;;;;;;4957592;28;89758;-31
2023/03/16 09:20:03;;;;;;;11.90;5.85;;;5.60;99.90;;;;;;4956081;28;89737;-32
2023/03/16 09:22:29;;;;;;;8.52;5.03;;;5.60;99.90;;;;;;4956159;28;90312;-27
2023/03/16 09:24:55;;;;;;;6.78;4.63;;;5.60;99.90;;;;;;4957158;28;88456;-31
2023/03/16 09:27:21;;;;;;;5.95;5.05;;;5.60;99.90;;;;;;4964613;28;89679;-31
2023/03/16 09:29:48;;;;;;;6.40;5.68;;;5.70;99.90;;;;;;4969060;28;87685;-32
2023/03/16 09:32:14;;;;;;;9.13;5.55;;;5.70;99.90;;;;;;4957196;28;90295;-32
2023/03/16 09:34:40;;;;;;;7.60;5.05;;;5.70;99.90;;;;;;4956236;28;90271;-33
2023/03/16 09:37:05;;;;;;;9.43;6.07;;;5.80;99.90;;;;;;4957203;28;89050;-29
2023/03/16 09:39:31;;;;;;;5.78;4.60;;;5.80;99.90;;;;;;4956411;28;88567;-30
2023/03/16 09:42:03;;;;;;;9.18;4.82;;;5.80;99.90;;;;;;4964179;28;88896;-31
2023/03/16 09:44:33;;;;;;;7.68;4.95;;;5.80;99.90;;;;;;4958985;28;89287;-30
2023/03/16 09:47:02;;;;;;;10.75;5.15;;;5.90;99.90;;;;;;4956176;28;90376;-29
2023/03/16 09:49:35;;;;;;;9.05;5.38;;;5.90;99.90;;;;;;4956199;28;89474;-33
2023/03/16 09:52:29;;;;;;;7.68;5.93;;;5.90;99.90;;;;;;4956267;28;90001;-29
2023/03/16 09:55:30;;;;;;;7.40;4.90;;;6.00;99.90;;;;;;4954893;28;89635;-30
2023/03/16 09:57:57;;;;;;;6.43;5.32;;;6.10;99.90;;;;;;4916215;28;89478;-29
2023/03/16 10:00:48;;;;;;;10.80;5.53;;;6.20;99.90;;;;;;4962107;28;88693;-33
2023/03/16 10:03:38;;;;;;;6.03;4.60;;;6.20;99.90;;;;;;4957295;28;90683;-31
2023/03/16 10:06:09;;;;;;;7.35;5.95;;;6.30;99.90;;;;;;4955888;28;89580;-33
2023/03/16 10:08:42;;;;;;;7.85;5.53;;;6.30;99.90;;;;;;4956691;28;89094;-30
2023/03/16 10:11:14;;;;;;;7.70;4.60;;;6.40;99.90;;;;;;4955453;28;89775;-29
2023/03/16 10:14:00;;;;;;;7.53;5.15;;;6.40;99.90;;;;;;4956498;28;91023;-30
2023/03/16 10:16:55;;;;;;;6.68;5.28;;;6.40;99.90;;;;;;4960581;28;89947;-33
2023/03/16 10:19:36;;;;;;;8.10;5.18;;;6.40;99.90;;;;;;4960541;28;89823;-30
2023/03/16 10:22:29;;;;;;;9.15;5.78;;;6.40;99.90;;;;;;4962486;28;89114;-29
2023/03/16 10:25:24;;;;;;;7.43;5.63;;;6.40;99.90;;;;;;4958170;28;89655;-30
2023/03/16 10:27:51;;;;;;;10.10;5.45;;;6.40;99.90;;;;;;4958993;28;89463;-29
2023/03/16 10:30:26;;;;;;;9.27;5.57;;;6.40;99.90;;;;;;4958791;28;89275;-29
2023/03/16 10:32:52;;;;;;;8.18;6.80;;;6.40;99.90;;;;;;4959856;28;88778;-32
2023/03/16 10:35:41;;;;;;;13.40;5.68;;;6.40;99.90;;;;;;4971650;28;92955;-30
2023/03/16 10:38:08;;;;;;;6.88;5.65;;;6.50;99.90;;;;;;4959004;28;90697;-30
2023/03/16 10:40:38;;;;;;;9.90;5.45;;;6.40;99.90;;;;;;4941180;28;90120;-29
2023/03/16 10:43:07;;;;;;;6.28;4.47;;;6.50;99.90;;;;;;4958587;28;88971;-29
2023/03/16 10:45:35;;;;;;;12.02;5.50;;;6.40;99.90;;;;;;4958710;28;89022;-28
2023/03/16 10:48:18;;;;;;;6.47;4.47;;;6.40;99.90;;;;;;4958647;28;90053;-31
2023/03/16 10:50:53;;;;;;;10.85;4.53;;;6.40;99.90;;;;;;4959212;28;89935;-30
2023/03/16 10:53:30;;;;;;;12.07;6.15;;;6.50;99.90;;;;;;4970137;28;89038;-33
2023/03/16 10:56:07;;;;;;;7.75;5.20;;;6.50;99.90;;;;;;4962350;28;90454;-30
2023/03/16 10:58:34;;;;;;;11.63;4.97;;;6.50;99.90;;;;;;4967212;28;89826;-30
2023/03/16 11:01:00;;;;;;;11.50;5.03;;;6.40;99.90;;;;;;4958327;28;89732;-30
2023/03/16 11:03:37;;;;;;;7.20;4.50;;;6.40;99.90;;;;;;4958159;28;90198;-31
2023/03/16 11:06:06;;;;;;;6.25;4.72;;;6.50;99.90;;;;;;4958560;28;90124;-28
2023/03/16 11:08:37;;;;;;;5.47;4.80;;;6.50;99.90;;;;;;4959513;28;89034;-30
2023/03/16 11:11:16;;;;;;;7.18;5.30;;;6.60;99.90;;;;;;4970056;28;89339;-30
2023/03/16 11:13:45;;;;;;;6.32;4.55;;;6.60;99.90;;;;;;4958758;28;89366;-28
2023/03/16 11:16:22;;;;;;;5.60;4.75;;;6.70;99.90;;;;;;4959356;28;87815;-32
2023/03/16 11:18:56;;;;;;;5.95;4.60;;;6.70;99.90;;;;;;4958193;28;90904;-31
2023/03/16 11:21:48;;;;;;;6.00;4.57;;;6.70;99.90;;;;;;4958797;28;88476;-30
2023/03/16 11:25:08;;;;;;;8.75;4.93;;;6.70;99.90;;;;;;4958611;28;88184;-31
2023/03/16 11:27:40;;;;;;;5.18;4.18;;;6.80;99.90;;;;;;4888766;28;89272;-28
2023/03/16 11:30:23;;;;;;;5.15;4.47;;;6.70;99.90;;;;;;4896471;28;90226;-32
2023/03/16 11:32:52;;;;;;;5.40;4.88;;;6.80;99.90;;;;;;4941923;28;90216;-31
2023/03/16 11:35:36;;;;;;;11.27;5.28;;;6.80;99.90;;;;;;4958358;28;88167;-30
2023/03/16 11:38:04;;;;;;;6.70;5.60;;;6.80;99.90;;;;;;4958189;28;91510;-31
2023/03/16 11:40:55;;;;;;;5.47;4.18;;;6.80;99.90;;;;;;4958497;28;89664;-28
2023/03/16 11:43:30;;;;;;;5.70;5.15;;;6.70;99.90;;;;;;4958121;28;89636;-31
2023/03/16 11:46:23;;;;;;;6.93;5.60;;;6.70;99.90;;;;;;4958991;28;88818;-30
2023/03/16 11:49:15;;;;;;;11.02;5.70;;;6.80;99.90;;;;;;4959347;28;90427;-29
2023/03/16 11:51:51;;;;;;;7.50;4.40;;;6.80;99.90;;;;;;4983510;22;89443;-30
2023/03/16 11:54:27;;;;;;;6.25;4.95;;;6.80;99.90;;;;;;4940444;28;89619;-30
2023/03/16 11:56:59;;;;;;;5.70;4.97;;;6.90;99.90;;;;;;4937408;28;90519;-32
2023/03/16 11:59:59;;;;;;;7.55;4.93;;;6.90;99.90;;;;;;4951876;28;90176;-29
2023/03/16 12:02:44;;;;;;;5.28;4.15;;;7.00;99.90;;;;;;4951572;28;89814;-32
2023/03/16 12:05:38;;;;;;;11.77;5.60;;;7.20;99.90;;;;;;4938571;28;89392;-29
2023/03/16 12:08:23;;;;;;;6.65;5.95;;;7.20;99.90;;;;;;4938177;28;89332;-30
2023/03/16 12:11:01;;;;;;;6.03;5.15;;;7.20;99.90;;;;;;4936797;28;90247;-32
2023/03/16 12:13:51;;;;;;;9.68;5.63;;;7.30;99.90;;;;;;4938397;28;90104;-30
2023/03/16 12:16:25;;;;;;;7.80;4.40;;;7.40;99.90;;;;;;4938356;28;89658;-30
2023/03/16 12:18:56;;;;;;;8.77;4.75;;;7.40;99.90;;;;;;4951742;28;89021;-30
2023/03/16 12:21:36;;;;;;;9.10;4.35;;;7.50;99.90;;;;;;4938534;28;90350;-30
2023/03/16 12:24:05;;;;;;;11.70;5.40;;;7.60;99.90;;;;;;4941358;28;90158;-30
2023/03/16 12:26:39;;;;;;;4.63;4.13;;;7.70;99.90;;;;;;4942214;28;90163;-33
2023/03/16 12:29:20;;;;;;;5.18;4.05;;;7.90;99.90;;;;;;4947540;28;89765;-30
2023/03/16 12:31:54;;;;;;;5.60;3.60;;;8.10;99.90;;;;;;4940008;28;90178;-32
2023/03/16 12:34:46;;;;;;;4.57;3.55;;;8.20;99.90;;;;;;4938234;28;89593;-29
2023/03/16 12:37:17;;;;;;;6.85;5.18;;;8.30;99.90;;;;;;4937846;28;90671;-29
2023/03/16 12:39:44;;;;;;;8.88;4.57;;;8.40;99.90;;;;;;4938266;28;87606;-29
2023/03/16 12:42:22;;;;;;;4.25;3.88;;;8.40;99.90;;;;;;4938504;28;88946;-30
2023/03/16 12:44:54;;;;;;;6.13;4.85;;;8.30;99.90;;;;;;4950439;28;89164;-30
2023/03/16 12:47:30;;;;;;;6.30;3.45;;;8.40;99.90;;;;;;4937077;28;89226;-31
2023/03/16 12:50:06;;;;;;;4.90;4.15;;;8.40;99.90;;;;;;4936549;28;88843;-32
2023/03/16 12:53:03;;;;;;;6.45;4.25;;;8.50;99.90;;;;;;4937484;28;90111;-32
2023/03/16 12:55:32;;;;;;;5.45;3.70;;;8.60;99.90;;;;;;4921627;28;90245;-30
2023/03/16 12:58:00;;;;;;;;;;;8.70;99.90;;;;;;4938409;28;89378;-29
2023/03/16 13:00:34;;;;;;;5.53;4.07;;;8.60;99.90;;;;;;4939029;28;89787;-30
2023/03/16 13:03:02;;;;;;;8.75;5.00;;;8.70;99.90;;;;;;4936997;28;89988;-29
2023/03/16 13:05:36;;;;;;;5.70;3.93;;;8.70;99.90;;;;;;4936953;28;89282;-32
2023/03/16 13:08:10;;;;;;;5.00;4.38;;;8.70;99.90;;;;;;4937717;28;89999;-30